createdAt,value
2023-02-14T00:00:38.465Z,4.62
2023-02-14T00:03:46.785Z,5.95
2023-02-14T00:06:55.248Z,5.27
2023-02-14T00:10:03.825Z,6.28
2023-02-14T00:13:18.785Z,5.25
2023-02-14T00:16:20.590Z,5.93
2023-02-14T00:19:36.770Z,5.20
2023-02-14T00:22:38.409Z,5.27
2023-02-14T00:25:53.024Z,5.22
2023-02-14T00:29:07.797Z,5.87
2023-02-14T00:32:23.090Z,6.35
2023-02-14T00:35:37.774Z,5.95
2023-02-14T00:38:45.766Z,5.37
2023-02-14T00:41:54.305Z,6.57
2023-02-14T00:45:08.762Z,6.47
2023-02-14T00:48:10.475Z,7.07
2023-02-14T00:51:26.028Z,5.72
2023-02-14T00:54:34.264Z,5.63
2023-02-14T00:57:42.798Z,5.78
2023-02-14T01:00:59.168Z,6.22
2023-02-14T01:04:01.161Z,5.55
2023-02-14T01:07:15.797Z,6.00
2023-02-14T01:10:17.643Z,5.53
2023-02-14T01:13:32.830Z,6.30
2023-02-14T01:16:40.842Z,6.22
2023-02-14T01:19:52.438Z,5.60
2023-02-14T01:23:00.761Z,5.62
2023-02-14T01:26:10.703Z,5.33
2023-02-14T01:29:18.787Z,5.75
2023-02-14T01:32:34.511Z,6.43
2023-02-14T01:35:44.806Z,6.12
2023-02-14T01:39:03.822Z,6.05
2023-02-14T01:42:12.409Z,6.50
2023-02-14T01:45:27.849Z,5.78
2023-02-14T01:48:42.804Z,5.75
2023-02-14T01:51:50.209Z,4.90
2023-02-14T01:55:09.810Z,5.97
2023-02-14T01:58:24.825Z,4.65
2023-02-14T02:01:33.720Z,6.22
2023-02-14T02:04:48.118Z,5.97
2023-02-14T02:07:58.844Z,5.93
2023-02-14T02:11:06.815Z,6.27
2023-02-14T02:14:19.075Z,6.43
2023-02-14T02:17:55.840Z,6.00
2023-02-14T02:21:26.822Z,5.80
2023-02-14T02:24:55.531Z,5.25
2023-02-14T02:28:33.813Z,5.97
2023-02-14T02:32:15.871Z,5.68
2023-02-14T02:36:09.794Z,5.45
2023-02-14T02:39:52.835Z,5.60
2023-02-14T02:43:23.821Z,5.90
2023-02-14T02:46:42.817Z,5.60
2023-02-14T02:50:18.096Z,5.70
2023-02-14T02:53:44.809Z,6.40
2023-02-14T02:56:59.617Z,5.05
2023-02-14T03:00:17.809Z,5.53
2023-02-14T03:03:24.317Z,6.07
2023-02-14T03:06:39.780Z,6.07
2023-02-14T03:09:58.817Z,5.95
2023-02-14T03:13:39.060Z,6.03
2023-02-14T03:17:10.838Z,5.95
2023-02-14T03:20:20.641Z,6.07
2023-02-14T03:23:40.822Z,6.40
2023-02-14T03:27:03.863Z,5.37
2023-02-14T03:30:24.423Z,5.45
2023-02-14T03:33:51.845Z,5.37
2023-02-14T03:37:15.800Z,5.97
2023-02-14T03:40:32.135Z,6.18
2023-02-14T03:43:43.817Z,6.25
2023-02-14T03:46:59.215Z,5.82
2023-02-14T03:50:20.869Z,6.55
2023-02-14T03:53:39.845Z,6.10
2023-02-14T03:56:58.949Z,5.72
2023-02-14T04:00:07.813Z,6.72
2023-02-14T04:03:20.149Z,6.97
2023-02-14T04:06:28.792Z,6.35
2023-02-14T04:09:37.332Z,5.90
2023-02-14T04:12:51.797Z,6.18
2023-02-14T04:15:53.520Z,6.60
2023-02-14T04:19:07.800Z,6.10
2023-02-14T04:22:45.718Z,6.05
2023-02-14T04:26:06.262Z,5.90
2023-02-14T04:29:20.828Z,6.65
2023-02-14T04:32:22.773Z,5.90
2023-02-14T04:35:37.821Z,6.37
2023-02-14T04:38:45.822Z,6.18
2023-02-14T04:41:54.566Z,6.80
2023-02-14T04:45:04.342Z,5.50
2023-02-14T04:48:18.805Z,6.57
2023-02-14T04:51:20.426Z,6.20
2023-02-14T04:54:34.859Z,7.22
2023-02-14T04:57:36.720Z,6.10
2023-02-14T05:00:51.869Z,5.53
2023-02-14T05:03:53.593Z,6.03
2023-02-14T05:07:07.816Z,7.32
2023-02-14T05:10:22.831Z,6.95
2023-02-14T05:13:24.568Z,6.13
2023-02-14T05:16:38.878Z,7.12
2023-02-14T05:19:40.612Z,6.62
2023-02-14T05:22:54.841Z,6.32
2023-02-14T05:25:56.537Z,6.32
2023-02-14T05:29:10.821Z,6.30
2023-02-14T05:32:25.863Z,7.28
2023-02-14T05:35:34.357Z,6.82
2023-02-14T05:38:42.820Z,6.00
2023-02-14T05:41:59.345Z,6.43
2023-02-14T05:45:07.865Z,6.53
2023-02-14T05:48:22.847Z,7.28
2023-02-14T05:51:32.841Z,6.43
2023-02-14T05:54:40.828Z,6.22
2023-02-14T05:57:49.317Z,5.57
2023-02-14T06:00:58.236Z,6.43
2023-02-14T06:04:12.907Z,6.85
2023-02-14T06:07:27.838Z,6.53
2023-02-14T06:10:42.861Z,6.40
2023-02-14T06:13:51.424Z,6.60
2023-02-14T06:17:05.797Z,6.60
2023-02-14T06:20:08.910Z,7.25
2023-02-14T06:23:23.822Z,7.87
2023-02-14T06:26:31.829Z,7.03
2023-02-14T06:29:40.655Z,7.68
2023-02-14T06:32:48.823Z,7.50
2023-02-14T06:36:03.825Z,7.25
2023-02-14T06:39:05.645Z,7.47
2023-02-14T06:42:20.973Z,7.05
2023-02-14T06:45:47.030Z,7.50
2023-02-14T06:49:04.802Z,7.23
2023-02-14T06:52:13.754Z,7.80
2023-02-14T06:59:03.879Z,6.80
2023-02-14T07:02:12.555Z,7.40
2023-02-14T07:05:26.845Z,7.80
2023-02-14T07:08:34.884Z,7.03
2023-02-14T07:15:42.862Z,8.93
2023-02-14T07:19:00.279Z,7.35
2023-02-14T07:22:16.173Z,6.67
2023-02-14T07:25:24.860Z,7.25
2023-02-14T07:33:12.010Z,7.72
2023-02-14T07:36:20.573Z,6.80
2023-02-14T07:39:29.079Z,6.30
2023-02-14T07:43:01.870Z,6.80
2023-02-14T07:46:03.984Z,7.90
2023-02-14T07:49:19.902Z,8.70
2023-02-14T07:52:28.625Z,8.13
2023-02-14T07:55:37.305Z,7.93
2023-02-14T07:58:45.558Z,9.65
2023-02-14T08:01:53.951Z,9.35
2023-02-14T08:05:08.885Z,8.65
2023-02-14T08:08:10.712Z,8.15
2023-02-14T08:11:29.233Z,7.63
2023-02-14T08:14:41.854Z,7.35
2023-02-14T08:17:50.653Z,7.62
2023-02-14T08:20:59.248Z,7.72
2023-02-14T08:24:07.690Z,7.90
2023-02-14T08:35:41.875Z,6.95
2023-02-14T08:39:28.145Z,6.20
2023-02-14T08:50:33.113Z,7.85
2023-02-14T08:53:56.922Z,7.35
2023-02-14T09:04:42.926Z,8.17
2023-02-14T09:07:59.117Z,7.37
2023-02-14T09:15:37.005Z,7.03
2023-02-14T09:18:39.776Z,7.12
2023-02-14T09:21:58.448Z,6.63
2023-02-14T09:29:56.315Z,7.82
2023-02-14T09:54:51.988Z,6.40
2023-02-14T09:58:20.326Z,6.67
2023-02-14T10:01:55.944Z,6.95
2023-02-14T10:05:20.049Z,7.35
2023-02-14T10:13:21.958Z,5.87
2023-02-14T10:16:45.915Z,5.93
2023-02-14T10:43:00.586Z,7.50
2023-02-14T10:46:35.201Z,6.72
2023-02-14T10:54:19.778Z,6.87
2023-02-14T10:57:38.929Z,7.47
2023-02-14T11:09:02.958Z,6.72
2023-02-14T11:12:05.320Z,6.10
2023-02-14T11:15:43.104Z,7.03
2023-02-14T12:17:50.990Z,5.03
2023-02-14T12:25:58.419Z,4.90
2023-02-14T12:41:54.856Z,5.25
2023-02-14T12:53:30.971Z,4.93
2023-02-14T12:57:00.154Z,4.55
2023-02-14T13:01:01.932Z,5.57
2023-02-14T13:08:53.002Z,5.73
2023-02-14T13:12:40.565Z,5.30
2023-02-14T13:24:24.311Z,5.62
2023-02-14T13:27:45.087Z,5.43
2023-02-14T13:35:13.411Z,6.32
2023-02-14T13:38:56.704Z,5.97
2023-02-14T14:35:28.006Z,5.40
2023-02-14T14:38:58.103Z,5.90
2023-02-14T14:54:23.014Z,5.30
2023-02-14T14:57:27.438Z,6.97
2023-02-14T15:04:40.056Z,6.10
2023-02-14T15:07:42.133Z,6.20
2023-02-14T15:11:17.171Z,5.85
2023-02-14T15:14:31.094Z,6.22
2023-02-14T15:17:48.000Z,6.43
2023-02-14T15:28:45.072Z,5.95
2023-02-14T15:31:54.599Z,6.55
2023-02-14T15:42:50.006Z,6.93
2023-02-14T15:50:54.328Z,6.15
2023-02-14T15:54:19.198Z,5.67
2023-02-14T16:02:08.980Z,6.00
2023-02-14T16:10:31.230Z,6.72
2023-02-14T16:13:43.660Z,6.60
2023-02-14T16:17:18.017Z,6.25
2023-02-14T16:24:21.002Z,7.45
2023-02-14T16:32:14.187Z,5.40
2023-02-14T16:36:26.068Z,5.75
2023-02-14T16:43:30.007Z,5.80
2023-02-14T16:50:38.019Z,5.30
2023-02-14T16:57:51.029Z,5.27
2023-02-14T17:01:41.509Z,5.87
2023-02-14T17:09:32.195Z,5.72
2023-02-14T17:12:48.894Z,5.30
2023-02-14T17:15:59.162Z,5.27
2023-02-14T17:19:08.300Z,5.70
2023-02-14T17:22:50.655Z,5.07
2023-02-14T17:30:08.063Z,5.53
2023-02-14T17:33:29.970Z,6.23
2023-02-14T17:37:07.918Z,6.03
2023-02-14T17:40:47.058Z,5.47
2023-02-14T17:43:56.453Z,5.43
2023-02-14T17:47:10.966Z,5.75
2023-02-14T17:50:20.055Z,5.83
2023-02-14T17:57:51.980Z,6.72
2023-02-14T18:01:04.452Z,6.30
2023-02-14T18:04:12.982Z,5.97
2023-02-14T18:07:27.993Z,7.70
2023-02-14T18:10:44.062Z,7.53
2023-02-14T18:13:54.497Z,8.15
2023-02-14T18:17:03.011Z,7.82
2023-02-14T18:20:21.191Z,7.65
2023-02-14T18:23:38.036Z,7.17
2023-02-14T18:26:48.030Z,8.27
2023-02-14T18:29:56.581Z,7.62
2023-02-14T18:33:05.078Z,7.50
2023-02-14T18:36:16.663Z,6.72
2023-02-14T18:39:24.982Z,7.60
2023-02-14T18:42:40.038Z,7.83
2023-02-14T18:46:15.743Z,7.43
2023-02-14T18:49:24.110Z,7.32
2023-02-14T18:52:44.085Z,7.87
2023-02-14T18:59:58.160Z,7.57
2023-02-14T19:18:50.036Z,8.40
2023-02-14T19:37:35.970Z,8.23
2023-02-14T19:41:11.986Z,8.23
2023-02-14T19:44:24.129Z,8.75
2023-02-14T19:47:46.542Z,9.18
2023-02-14T19:50:56.062Z,8.97
2023-02-14T19:54:44.029Z,9.43
2023-02-14T19:57:53.333Z,8.40
2023-02-14T20:01:32.236Z,9.77
2023-02-14T20:04:48.038Z,8.73
2023-02-14T20:07:52.253Z,8.83
2023-02-14T20:11:08.073Z,8.87
2023-02-14T20:14:13.572Z,9.10
2023-02-14T20:17:28.125Z,9.05
2023-02-14T20:20:37.050Z,9.18
2023-02-14T20:23:46.036Z,10.30
2023-02-14T20:26:56.007Z,9.97
2023-02-14T20:30:06.533Z,9.27
2023-02-14T20:33:15.045Z,10.13
2023-02-14T20:36:24.488Z,11.32
2023-02-14T20:39:41.053Z,9.77
2023-02-14T20:42:50.884Z,9.40
2023-02-14T20:46:08.083Z,9.65
2023-02-14T20:49:12.277Z,10.02
2023-02-14T20:52:26.999Z,9.30
2023-02-14T20:55:39.633Z,9.67
2023-02-14T20:58:49.213Z,9.67
2023-02-14T21:01:58.926Z,10.73
2023-02-14T21:05:07.038Z,11.07
2023-02-14T21:08:21.992Z,9.43
2023-02-14T21:11:31.010Z,10.67
2023-02-14T21:14:39.921Z,9.97
2023-02-14T21:17:55.022Z,9.98
2023-02-14T21:21:05.771Z,10.20
2023-02-14T21:24:22.028Z,11.12
2023-02-14T21:27:31.074Z,10.47
2023-02-14T21:30:40.017Z,10.50
2023-02-14T21:37:38.269Z,11.48
2023-02-14T21:40:53.070Z,10.43
2023-02-14T21:43:55.878Z,11.37
2023-02-14T21:51:12.073Z,10.02
2023-02-14T21:54:27.050Z,11.18
2023-02-14T21:57:30.010Z,11.07
2023-02-14T22:00:45.998Z,13.77
2023-02-14T22:03:55.231Z,11.60
2023-02-14T22:07:03.014Z,12.18
2023-02-14T22:10:19.056Z,11.60
2023-02-14T22:13:21.004Z,10.73
2023-02-14T22:16:37.054Z,12.53
2023-02-14T22:19:45.026Z,12.45
2023-02-14T22:22:53.762Z,11.52
2023-02-14T22:26:02.051Z,12.32
2023-02-14T22:29:19.031Z,11.00
2023-02-14T22:32:27.628Z,10.83
2023-02-14T22:35:36.024Z,11.05
2023-02-14T22:38:45.606Z,10.50
2023-02-14T22:42:00.047Z,10.35
2023-02-14T22:45:02.193Z,9.88
2023-02-14T22:48:17.024Z,10.23
2023-02-14T22:51:42.056Z,11.43
2023-02-14T22:54:52.711Z,11.95
2023-02-14T22:58:01.078Z,11.68
2023-02-14T23:01:14.692Z,10.85
2023-02-14T23:04:25.048Z,11.00
2023-02-14T23:08:05.037Z,11.48
2023-02-14T23:11:10.038Z,11.95
2023-02-14T23:14:28.026Z,11.23
2023-02-14T23:17:29.691Z,11.07
2023-02-14T23:20:44.089Z,11.47
2023-02-14T23:23:45.961Z,11.75
2023-02-14T23:27:01.209Z,11.15
2023-02-14T23:30:05.587Z,11.60
2023-02-14T23:33:20.037Z,12.48
2023-02-14T23:36:28.030Z,12.10
2023-02-14T23:39:36.684Z,12.23
2023-02-14T23:42:45.033Z,12.23
2023-02-14T23:45:53.674Z,12.52
2023-02-14T23:49:02.045Z,12.57
2023-02-14T23:52:24.048Z,12.00
2023-02-14T23:55:39.006Z,12.43
2023-02-14T23:58:43.120Z,11.18
